sensor_id;sensor_type;location;lat;lon;timestamp;temperature;humidity
17918;DHT22;9084;50.956;3.106;2023-10-19T00:01:21;15.60;99.90
17918;DHT22;9084;50.956;3.106;2023-10-19T00:03:52;15.60;99.90
17918;DHT22;9084;50.956;3.106;2023-10-19T00:06:21;15.50;99.90
17918;DHT22;9084;50.956;3.106;2023-10-19T00:08:50;15.50;99.90
17918;DHT22;9084;50.956;3.106;2023-10-19T00:11:18;15.50;99.90
17918;DHT22;9084;50.956;3.106;2023-10-19T00:13:48;15.50;99.90
17918;DHT22;9084;50.956;3.106;2023-10-19T00:16:20;15.50;99.90
17918;DHT22;9084;50.956;3.106;2023-10-19T00:18:51;15.50;99.90
17918;DHT22;9084;50.956;3.106;2023-10-19T00:21:17;15.50;99.90
17918;DHT22;9084;50.956;3.106;2023-10-19T00:23:53;15.50;99.90
17918;DHT22;9084;50.956;3.106;2023-10-19T00:26:22;15.50;99.90
17918;DHT22;9084;50.956;3.106;2023-10-19T00:28:54;15.50;99.90
17918;DHT22;9084;50.956;3.106;2023-10-19T00:31:23;15.40;99.90
17918;DHT22;9084;50.956;3.106;2023-10-19T00:33:49;15.40;99.90
17918;DHT22;9084;50.956;3.106;2023-10-19T00:36:17;15.40;99.90
17918;DHT22;9084;50.956;3.106;2023-10-19T00:38:46;15.40;99.90
17918;DHT22;9084;50.956;3.106;2023-10-19T00:41:17;15.40;99.90
17918;DHT22;9084;50.956;3.106;2023-10-19T00:43:55;15.40;99.90
17918;DHT22;9084;50.956;3.106;2023-10-19T00:46:36;15.40;99.90
17918;DHT22;9084;50.956;3.106;2023-10-19T00:49:14;15.40;99.90
17918;DHT22;9084;50.956;3.106;2023-10-19T00:51:48;15.40;99.90
17918;DHT22;9084;50.956;3.106;2023-10-19T00:54:38;15.40;99.90
17918;DHT22;9084;50.956;3.106;2023-10-19T00:57:25;15.40;99.90
17918;DHT22;9084;50.956;3.106;2023-10-19T01:00:04;15.50;99.90
17918;DHT22;9084;50.956;3.106;2023-10-19T01:02:46;15.50;99.90
17918;DHT22;9084;50.956;3.106;2023-10-19T01:05:12;15.40;99.90
17918;DHT22;9084;50.956;3.106;2023-10-19T01:07:40;15.50;99.90
17918;DHT22;9084;50.956;3.106;2023-10-19T01:10:08;15.50;99.90
17918;DHT22;9084;50.956;3.106;2023-10-19T01:12:34;15.50;99.90
17918;DHT22;9084;50.956;3.106;2023-10-19T01:15:10;15.40;99.90
17918;DHT22;9084;50.956;3.106;2023-10-19T01:17:43;15.50;99.90
17918;DHT22;9084;50.956;3.106;2023-10-19T01:20:17;15.40;99.90
17918;DHT22;9084;50.956;3.106;2023-10-19T01:23:13;15.40;99.90
17918;DHT22;9084;50.956;3.106;2023-10-19T01:25:50;15.40;99.90
17918;DHT22;9084;50.956;3.106;2023-10-19T01:31:14;15.40;99.90
17918;DHT22;9084;50.956;3.106;2023-10-19T01:33:42;15.30;99.90
17918;DHT22;9084;50.956;3.106;2023-10-19T01:36:11;15.30;99.90
17918;DHT22;9084;50.956;3.106;2023-10-19T01:38:40;15.30;99.90
17918;DHT22;9084;50.956;3.106;2023-10-19T01:41:09;15.20;99.90
17918;DHT22;9084;50.956;3.106;2023-10-19T01:43:42;15.20;99.90
17918;DHT22;9084;50.956;3.106;2023-10-19T01:46:11;15.20;99.90
17918;DHT22;9084;50.956;3.106;2023-10-19T01:48:41;15.20;99.90
17918;DHT22;9084;50.956;3.106;2023-10-19T01:51:12;15.20;99.90
17918;DHT22;9084;50.956;3.106;2023-10-19T01:53:40;15.20;99.90
17918;DHT22;9084;50.956;3.106;2023-10-19T01:56:15;15.20;99.90
17918;DHT22;9084;50.956;3.106;2023-10-19T01:58:45;15.20;99.90
17918;DHT22;9084;50.956;3.106;2023-10-19T02:01:15;15.20;99.90
17918;DHT22;9084;50.956;3.106;2023-10-19T02:03:44;15.20;99.90
17918;DHT22;9084;50.956;3.106;2023-10-19T02:06:11;15.20;99.90
17918;DHT22;9084;50.956;3.106;2023-10-19T02:08:49;15.20;99.90
17918;DHT22;9084;50.956;3.106;2023-10-19T02:11:25;15.30;99.90
17918;DHT22;9084;50.956;3.106;2023-10-19T02:13:53;15.20;99.90
17918;DHT22;9084;50.956;3.106;2023-10-19T02:16:22;15.20;99.90
17918;DHT22;9084;50.956;3.106;2023-10-19T02:18:49;15.20;99.90
17918;DHT22;9084;50.956;3.106;2023-10-19T02:21:16;15.20;99.90
17918;DHT22;9084;50.956;3.106;2023-10-19T02:23:48;15.20;99.90
17918;DHT22;9084;50.956;3.106;2023-10-19T02:26:21;15.20;99.90
17918;DHT22;9084;50.956;3.106;2023-10-19T02:28:57;15.20;99.90
17918;DHT22;9084;50.956;3.106;2023-10-19T02:31:26;15.10;99.90
17918;DHT22;9084;50.956;3.106;2023-10-19T02:33:54;15.20;99.90
17918;DHT22;9084;50.956;3.106;2023-10-19T02:36:29;15.20;99.90
17918;DHT22;9084;50.956;3.106;2023-10-19T02:39:04;15.20;99.90
17918;DHT22;9084;50.956;3.106;2023-10-19T02:41:40;15.20;99.90
17918;DHT22;9084;50.956;3.106;2023-10-19T02:44:14;15.20;99.90
17918;DHT22;9084;50.956;3.106;2023-10-19T02:46:46;15.10;99.90
17918;DHT22;9084;50.956;3.106;2023-10-19T02:49:15;15.20;99.90
17918;DHT22;9084;50.956;3.106;2023-10-19T02:51:45;15.20;99.90
17918;DHT22;9084;50.956;3.106;2023-10-19T02:54:11;15.20;99.90
17918;DHT22;9084;50.956;3.106;2023-10-19T02:56:54;15.10;99.90
17918;DHT22;9084;50.956;3.106;2023-10-19T02:59:25;15.20;99.90
17918;DHT22;9084;50.956;3.106;2023-10-19T03:01:58;15.20;99.90
17918;DHT22;9084;50.956;3.106;2023-10-19T03:04:27;15.10;99.90
17918;DHT22;9084;50.956;3.106;2023-10-19T03:06:57;15.10;99.90
17918;DHT22;9084;50.956;3.106;2023-10-19T03:09:26;15.10;99.90
17918;DHT22;9084;50.956;3.106;2023-10-19T03:11:54;15.10;99.90
17918;DHT22;9084;50.956;3.106;2023-10-19T03:14:31;15.20;99.90
17918;DHT22;9084;50.956;3.106;2023-10-19T03:16:59;15.20;99.90
17918;DHT22;9084;50.956;3.106;2023-10-19T03:19:26;15.10;99.90
17918;DHT22;9084;50.956;3.106;2023-10-19T03:21:52;15.10;99.90
17918;DHT22;9084;50.956;3.106;2023-10-19T03:24:20;15.20;99.90
17918;DHT22;9084;50.956;3.106;2023-10-19T03:27:07;15.20;99.90
17918;DHT22;9084;50.956;3.106;2023-10-19T03:29:46;15.20;99.90
17918;DHT22;9084;50.956;3.106;2023-10-19T03:32:14;15.20;99.90
17918;DHT22;9084;50.956;3.106;2023-10-19T03:34:41;15.20;99.90
17918;DHT22;9084;50.956;3.106;2023-10-19T03:37:13;15.20;99.90
17918;DHT22;9084;50.956;3.106;2023-10-19T03:39:41;15.20;99.90
17918;DHT22;9084;50.956;3.106;2023-10-19T03:42:06;15.20;99.90
17918;DHT22;9084;50.956;3.106;2023-10-19T03:44:33;15.20;99.90
17918;DHT22;9084;50.956;3.106;2023-10-19T03:47:31;15.20;99.90
17918;DHT22;9084;50.956;3.106;2023-10-19T03:50:04;15.30;99.90
17918;DHT22;9084;50.956;3.106;2023-10-19T03:52:35;15.30;99.90
17918;DHT22;9084;50.956;3.106;2023-10-19T03:55:06;15.30;99.90
17918;DHT22;9084;50.956;3.106;2023-10-19T03:57:37;15.30;99.90
17918;DHT22;9084;50.956;3.106;2023-10-19T04:00:07;15.30;99.90
17918;DHT22;9084;50.956;3.106;2023-10-19T04:02:44;15.30;99.90
17918;DHT22;9084;50.956;3.106;2023-10-19T04:05:09;15.30;99.90
17918;DHT22;9084;50.956;3.106;2023-10-19T04:07:42;15.30;99.90
17918;DHT22;9084;50.956;3.106;2023-10-19T04:10:08;15.30;99.90
17918;DHT22;9084;50.956;3.106;2023-10-19T04:12:39;15.30;99.90
17918;DHT22;9084;50.956;3.106;2023-10-19T04:15:10;15.30;99.90
17918;DHT22;9084;50.956;3.106;2023-10-19T04:17:45;15.30;99.90
17918;DHT22;9084;50.956;3.106;2023-10-19T04:20:12;15.30;99.90
17918;DHT22;9084;50.956;3.106;2023-10-19T04:22:40;15.30;99.90
17918;DHT22;9084;50.956;3.106;2023-10-19T04:25:09;15.30;99.90
17918;DHT22;9084;50.956;3.106;2023-10-19T04:27:40;15.40;99.90
17918;DHT22;9084;50.956;3.106;2023-10-19T04:30:09;15.40;99.90
17918;DHT22;9084;50.956;3.106;2023-10-19T04:32:41;15.40;99.90
17918;DHT22;9084;50.956;3.106;2023-10-19T04:35:09;15.40;99.90
17918;DHT22;9084;50.956;3.106;2023-10-19T04:37:36;15.40;99.90
17918;DHT22;9084;50.956;3.106;2023-10-19T04:40:04;15.40;99.90
17918;DHT22;9084;50.956;3.106;2023-10-19T04:42:32;15.40;99.90
17918;DHT22;9084;50.956;3.106;2023-10-19T04:45:02;15.40;99.90
17918;DHT22;9084;50.956;3.106;2023-10-19T04:47:28;15.40;99.90
17918;DHT22;9084;50.956;3.106;2023-10-19T04:49:54;15.40;99.90
17918;DHT22;9084;50.956;3.106;2023-10-19T04:52:20;15.40;99.90
17918;DHT22;9084;50.956;3.106;2023-10-19T04:54:48;15.40;99.90
17918;DHT22;9084;50.956;3.106;2023-10-19T04:57:14;15.40;99.90
17918;DHT22;9084;50.956;3.106;2023-10-19T04:59:39;15.40;99.90
17918;DHT22;9084;50.956;3.106;2023-10-19T05:02:11;15.40;99.90
17918;DHT22;9084;50.956;3.106;2023-10-19T05:04:36;15.40;99.90
17918;DHT22;9084;50.956;3.106;2023-10-19T05:07:02;15.40;99.90
17918;DHT22;9084;50.956;3.106;2023-10-19T05:09:29;15.40;99.90
17918;DHT22;9084;50.956;3.106;2023-10-19T05:11:57;15.40;99.90
17918;DHT22;9084;50.956;3.106;2023-10-19T05:14:23;15.40;99.90
17918;DHT22;9084;50.956;3.106;2023-10-19T05:16:52;15.30;99.90
17918;DHT22;9084;50.956;3.106;2023-10-19T05:19:17;15.40;99.90
17918;DHT22;9084;50.956;3.106;2023-10-19T05:21:43;15.30;99.90
17918;DHT22;9084;50.956;3.106;2023-10-19T05:24:10;15.30;99.90
17918;DHT22;9084;50.956;3.106;2023-10-19T05:26:36;15.30;99.90
17918;DHT22;9084;50.956;3.106;2023-10-19T05:29:03;15.30;99.90
17918;DHT22;9084;50.956;3.106;2023-10-19T05:31:31;15.20;99.90
17918;DHT22;9084;50.956;3.106;2023-10-19T05:33:59;15.20;99.90
17918;DHT22;9084;50.956;3.106;2023-10-19T05:36:25;15.10;99.90
17918;DHT22;9084;50.956;3.106;2023-10-19T05:38:50;15.00;99.90
17918;DHT22;9084;50.956;3.106;2023-10-19T05:41:17;15.00;99.90
17918;DHT22;9084;50.956;3.106;2023-10-19T05:43:44;14.90;99.90
17918;DHT22;9084;50.956;3.106;2023-10-19T05:46:12;14.90;99.90
17918;DHT22;9084;50.956;3.106;2023-10-19T05:48:44;14.80;99.90
17918;DHT22;9084;50.956;3.106;2023-10-19T05:51:11;14.80;99.90
17918;DHT22;9084;50.956;3.106;2023-10-19T05:53:39;14.80;99.90
17918;DHT22;9084;50.956;3.106;2023-10-19T05:56:04;14.80;99.90
17918;DHT22;9084;50.956;3.106;2023-10-19T05:58:33;14.80;99.90
17918;DHT22;9084;50.956;3.106;2023-10-19T06:01:01;14.80;99.90
17918;DHT22;9084;50.956;3.106;2023-10-19T06:03:27;14.80;99.90
17918;DHT22;9084;50.956;3.106;2023-10-19T06:05:53;14.80;99.90
17918;DHT22;9084;50.956;3.106;2023-10-19T06:08:24;14.80;99.90
17918;DHT22;9084;50.956;3.106;2023-10-19T06:10:53;14.80;99.90
17918;DHT22;9084;50.956;3.106;2023-10-19T06:13:19;14.90;99.90
17918;DHT22;9084;50.956;3.106;2023-10-19T06:15:45;15.00;99.90
17918;DHT22;9084;50.956;3.106;2023-10-19T06:18:13;15.00;99.90
17918;DHT22;9084;50.956;3.106;2023-10-19T06:20:45;14.90;99.90
17918;DHT22;9084;50.956;3.106;2023-10-19T06:23:16;14.90;99.90
17918;DHT22;9084;50.956;3.106;2023-10-19T06:25:44;14.90;99.90
17918;DHT22;9084;50.956;3.106;2023-10-19T06:28:10;14.90;99.90
17918;DHT22;9084;50.956;3.106;2023-10-19T06:30:39;14.90;99.90
17918;DHT22;9084;50.956;3.106;2023-10-19T06:33:08;14.90;99.90
17918;DHT22;9084;50.956;3.106;2023-10-19T06:35:34;15.00;99.90
17918;DHT22;9084;50.956;3.106;2023-10-19T06:38:04;14.90;99.90
17918;DHT22;9084;50.956;3.106;2023-10-19T06:40:30;14.90;99.90
17918;DHT22;9084;50.956;3.106;2023-10-19T06:43:00;14.90;99.90
17918;DHT22;9084;50.956;3.106;2023-10-19T06:45:28;14.90;99.90
17918;DHT22;9084;50.956;3.106;2023-10-19T06:47:56;14.90;99.90
17918;DHT22;9084;50.956;3.106;2023-10-19T06:50:24;14.90;99.90
17918;DHT22;9084;50.956;3.106;2023-10-19T06:52:51;14.90;99.90
17918;DHT22;9084;50.956;3.106;2023-10-19T06:55:18;14.90;99.90
17918;DHT22;9084;50.956;3.106;2023-10-19T06:57:50;14.90;99.90
17918;DHT22;9084;50.956;3.106;2023-10-19T07:00:23;14.90;99.90
17918;DHT22;9084;50.956;3.106;2023-10-19T07:02:52;14.90;99.90
17918;DHT22;9084;50.956;3.106;2023-10-19T07:05:18;14.90;99.90
17918;DHT22;9084;50.956;3.106;2023-10-19T07:07:52;14.90;99.90
17918;DHT22;9084;50.956;3.106;2023-10-19T07:10:22;15.00;99.90
17918;DHT22;9084;50.956;3.106;2023-10-19T07:12:51;14.90;99.90
17918;DHT22;9084;50.956;3.106;2023-10-19T07:15:19;15.00;99.90
17918;DHT22;9084;50.956;3.106;2023-10-19T07:17:48;14.90;99.90
17918;DHT22;9084;50.956;3.106;2023-10-19T07:20:15;15.00;99.90
17918;DHT22;9084;50.956;3.106;2023-10-19T07:23:00;15.00;99.90
17918;DHT22;9084;50.956;3.106;2023-10-19T07:25:46;14.90;99.90
17918;DHT22;9084;50.956;3.106;2023-10-19T07:28:19;14.90;99.90
17918;DHT22;9084;50.956;3.106;2023-10-19T07:30:48;15.00;99.90
17918;DHT22;9084;50.956;3.106;2023-10-19T07:33:14;14.90;99.90
17918;DHT22;9084;50.956;3.106;2023-10-19T07:35:44;15.00;99.90
17918;DHT22;9084;50.956;3.106;2023-10-19T07:38:13;15.00;99.90
17918;DHT22;9084;50.956;3.106;2023-10-19T07:40:40;15.00;99.90
17918;DHT22;9084;50.956;3.106;2023-10-19T07:43:05;15.00;99.90
17918;DHT22;9084;50.956;3.106;2023-10-19T07:45:32;15.10;99.90
17918;DHT22;9084;50.956;3.106;2023-10-19T07:48:00;15.10;99.90
17918;DHT22;9084;50.956;3.106;2023-10-19T07:50:35;15.10;99.90
17918;DHT22;9084;50.956;3.106;2023-10-19T07:53:01;15.20;99.90
17918;DHT22;9084;50.956;3.106;2023-10-19T07:55:27;15.20;99.90
17918;DHT22;9084;50.956;3.106;2023-10-19T07:57:53;15.20;99.90
17918;DHT22;9084;50.956;3.106;2023-10-19T08:00:20;15.20;99.90
17918;DHT22;9084;50.956;3.106;2023-10-19T08:02:46;15.20;99.90
17918;DHT22;9084;50.956;3.106;2023-10-19T08:05:17;15.30;99.90
17918;DHT22;9084;50.956;3.106;2023-10-19T08:07:46;15.30;99.90
17918;DHT22;9084;50.956;3.106;2023-10-19T08:10:20;15.30;99.90
17918;DHT22;9084;50.956;3.106;2023-10-19T08:12:47;15.40;99.90
17918;DHT22;9084;50.956;3.106;2023-10-19T08:15:14;15.40;99.90
17918;DHT22;9084;50.956;3.106;2023-10-19T08:17:46;15.60;99.90
17918;DHT22;9084;50.956;3.106;2023-10-19T08:20:18;15.70;99.90
17918;DHT22;9084;50.956;3.106;2023-10-19T08:22:54;15.90;99.90
17918;DHT22;9084;50.956;3.106;2023-10-19T08:25:22;16.00;99.90
17918;DHT22;9084;50.956;3.106;2023-10-19T08:27:49;16.20;99.90
17918;DHT22;9084;50.956;3.106;2023-10-19T08:30:19;16.30;99.90
17918;DHT22;9084;50.956;3.106;2023-10-19T08:32:48;16.30;99.90
17918;DHT22;9084;50.956;3.106;2023-10-19T08:35:17;16.40;99.90
17918;DHT22;9084;50.956;3.106;2023-10-19T08:37:46;16.40;99.90
17918;DHT22;9084;50.956;3.106;2023-10-19T08:40:13;16.40;99.90
17918;DHT22;9084;50.956;3.106;2023-10-19T08:42:46;16.50;99.90
17918;DHT22;9084;50.956;3.106;2023-10-19T08:45:14;16.50;99.90
17918;DHT22;9084;50.956;3.106;2023-10-19T08:47:56;16.50;99.90
17918;DHT22;9084;50.956;3.106;2023-10-19T08:50:28;16.60;99.90
17918;DHT22;9084;50.956;3.106;2023-10-19T08:52:55;16.70;99.90
17918;DHT22;9084;50.956;3.106;2023-10-19T08:55:21;16.80;99.90
17918;DHT22;9084;50.956;3.106;2023-10-19T08:57:49;16.90;99.90
17918;DHT22;9084;50.956;3.106;2023-10-19T09:00:18;16.90;99.90
17918;DHT22;9084;50.956;3.106;2023-10-19T09:02:54;16.90;99.90
17918;DHT22;9084;50.956;3.106;2023-10-19T09:05:20;16.80;99.90
17918;DHT22;9084;50.956;3.106;2023-10-19T09:07:54;16.70;99.90
17918;DHT22;9084;50.956;3.106;2023-10-19T09:10:26;16.80;99.90
17918;DHT22;9084;50.956;3.106;2023-10-19T09:13:05;16.80;99.90
17918;DHT22;9084;50.956;3.106;2023-10-19T09:15:41;16.80;99.90
17918;DHT22;9084;50.956;3.106;2023-10-19T09:18:24;16.90;99.90
17918;DHT22;9084;50.956;3.106;2023-10-19T09:20:51;17.00;99.90
17918;DHT22;9084;50.956;3.106;2023-10-19T09:23:27;17.10;99.90
17918;DHT22;9084;50.956;3.106;2023-10-19T09:25:58;17.20;99.90
17918;DHT22;9084;50.956;3.106;2023-10-19T09:28:25;17.40;99.90
17918;DHT22;9084;50.956;3.106;2023-10-19T09:30:56;17.40;99.90
17918;DHT22;9084;50.956;3.106;2023-10-19T09:33:22;17.50;99.90
17918;DHT22;9084;50.956;3.106;2023-10-19T09:35:50;17.50;99.90
17918;DHT22;9084;50.956;3.106;2023-10-19T09:38:19;17.40;99.90
17918;DHT22;9084;50.956;3.106;2023-10-19T09:40:50;17.40;99.90
17918;DHT22;9084;50.956;3.106;2023-10-19T09:45:51;17.30;99.90
17918;DHT22;9084;50.956;3.106;2023-10-19T09:48:19;17.30;99.90
17918;DHT22;9084;50.956;3.106;2023-10-19T09:50:51;17.30;99.90
17918;DHT22;9084;50.956;3.106;2023-10-19T09:53:23;17.20;99.90
17918;DHT22;9084;50.956;3.106;2023-10-19T09:55:51;17.10;99.90
17918;DHT22;9084;50.956;3.106;2023-10-19T09:58:20;17.10;99.90
17918;DHT22;9084;50.956;3.106;2023-10-19T10:00:48;17.10;99.90
17918;DHT22;9084;50.956;3.106;2023-10-19T10:03:52;17.20;99.90
17918;DHT22;9084;50.956;3.106;2023-10-19T10:08:54;17.20;99.90
17918;DHT22;9084;50.956;3.106;2023-10-19T10:11:22;17.20;99.90
17918;DHT22;9084;50.956;3.106;2023-10-19T10:13:50;17.30;99.90
17918;DHT22;9084;50.956;3.106;2023-10-19T10:16:26;17.50;99.90
17918;DHT22;9084;50.956;3.106;2023-10-19T10:18:59;17.60;99.90
17918;DHT22;9084;50.956;3.106;2023-10-19T10:21:27;17.70;99.90
17918;DHT22;9084;50.956;3.106;2023-10-19T10:24:00;17.80;99.90
17918;DHT22;9084;50.956;3.106;2023-10-19T10:26:30;17.70;99.90
17918;DHT22;9084;50.956;3.106;2023-10-19T10:31:47;17.70;99.90
17918;DHT22;9084;50.956;3.106;2023-10-19T10:37:09;17.70;99.90
17918;DHT22;9084;50.956;3.106;2023-10-19T10:39:38;17.80;99.90
17918;DHT22;9084;50.956;3.106;2023-10-19T10:42:07;17.90;99.90
17918;DHT22;9084;50.956;3.106;2023-10-19T10:44:44;18.10;99.90
17918;DHT22;9084;50.956;3.106;2023-10-19T10:47:20;18.40;99.90
17918;DHT22;9084;50.956;3.106;2023-10-19T10:49:59;18.70;99.90
17918;DHT22;9084;50.956;3.106;2023-10-19T10:52:32;19.00;99.90
17918;DHT22;9084;50.956;3.106;2023-10-19T10:55:09;19.10;99.90
17918;DHT22;9084;50.956;3.106;2023-10-19T10:57:39;19.00;99.90
17918;DHT22;9084;50.956;3.106;2023-10-19T11:02:42;18.90;99.90
17918;DHT22;9084;50.956;3.106;2023-10-19T11:05:10;18.90;99.90
17918;DHT22;9084;50.956;3.106;2023-10-19T11:08:25;18.90;99.90
17918;DHT22;9084;50.956;3.106;2023-10-19T11:10:29;18.90;99.90
17918;DHT22;9084;50.956;3.106;2023-10-19T11:13:03;18.90;99.90
17918;DHT22;9084;50.956;3.106;2023-10-19T11:15:29;18.90;99.90
17918;DHT22;9084;50.956;3.106;2023-10-19T11:17:55;19.00;99.90
17918;DHT22;9084;50.956;3.106;2023-10-19T11:20:24;19.30;99.90
17918;DHT22;9084;50.956;3.106;2023-10-19T11:22:55;19.50;99.90
17918;DHT22;9084;50.956;3.106;2023-10-19T11:25:30;19.70;99.90
17918;DHT22;9084;50.956;3.106;2023-10-19T11:27:59;19.60;99.90
17918;DHT22;9084;50.956;3.106;2023-10-19T11:30:27;19.50;99.90
17918;DHT22;9084;50.956;3.106;2023-10-19T11:32:54;19.50;99.90
17918;DHT22;9084;50.956;3.106;2023-10-19T11:35:27;19.40;99.90
17918;DHT22;9084;50.956;3.106;2023-10-19T11:37:56;19.30;99.90
17918;DHT22;9084;50.956;3.106;2023-10-19T11:40:27;19.40;99.90
17918;DHT22;9084;50.956;3.106;2023-10-19T11:42:54;19.20;99.90
17918;DHT22;9084;50.956;3.106;2023-10-19T11:45:24;19.10;99.90
17918;DHT22;9084;50.956;3.106;2023-10-19T11:47:50;19.00;99.90
17918;DHT22;9084;50.956;3.106;2023-10-19T11:50:16;19.00;99.90
17918;DHT22;9084;50.956;3.106;2023-10-19T11:52:44;18.90;99.90
17918;DHT22;9084;50.956;3.106;2023-10-19T11:55:16;18.90;99.90
17918;DHT22;9084;50.956;3.106;2023-10-19T11:57:43;18.90;99.90
17918;DHT22;9084;50.956;3.106;2023-10-19T12:00:12;18.90;99.90
17918;DHT22;9084;50.956;3.106;2023-10-19T12:02:47;18.80;99.90
17918;DHT22;9084;50.956;3.106;2023-10-19T12:05:13;18.90;99.90
17918;DHT22;9084;50.956;3.106;2023-10-19T12:07:39;18.90;99.90
17918;DHT22;9084;50.956;3.106;2023-10-19T12:10:09;18.90;99.90
17918;DHT22;9084;50.956;3.106;2023-10-19T12:12:36;18.90;99.90
17918;DHT22;9084;50.956;3.106;2023-10-19T12:15:03;18.80;99.90
17918;DHT22;9084;50.956;3.106;2023-10-19T12:17:31;18.70;99.90
17918;DHT22;9084;50.956;3.106;2023-10-19T12:19:59;18.60;99.90
17918;DHT22;9084;50.956;3.106;2023-10-19T12:22:24;18.60;99.90
17918;DHT22;9084;50.956;3.106;2023-10-19T12:24:54;18.60;99.90
17918;DHT22;9084;50.956;3.106;2023-10-19T12:27:20;18.60;99.90
17918;DHT22;9084;50.956;3.106;2023-10-19T12:29:46;18.60;99.90
17918;DHT22;9084;50.956;3.106;2023-10-19T12:32:14;18.70;99.90
17918;DHT22;9084;50.956;3.106;2023-10-19T12:34:42;18.80;99.90
17918;DHT22;9084;50.956;3.106;2023-10-19T12:37:09;18.90;99.90
17918;DHT22;9084;50.956;3.106;2023-10-19T12:39:36;19.10;99.90
17918;DHT22;9084;50.956;3.106;2023-10-19T12:42:11;19.40;99.90
17918;DHT22;9084;50.956;3.106;2023-10-19T12:44:39;19.70;99.90
17918;DHT22;9084;50.956;3.106;2023-10-19T12:47:05;19.80;99.90
17918;DHT22;9084;50.956;3.106;2023-10-19T12:49:42;20.00;99.90
17918;DHT22;9084;50.956;3.106;2023-10-19T12:52:13;20.00;99.90
17918;DHT22;9084;50.956;3.106;2023-10-19T12:54:40;20.10;99.90
17918;DHT22;9084;50.956;3.106;2023-10-19T12:57:09;20.00;99.90
17918;DHT22;9084;50.956;3.106;2023-10-19T12:59:36;19.90;99.90
17918;DHT22;9084;50.956;3.106;2023-10-19T13:02:07;19.80;99.90
17918;DHT22;9084;50.956;3.106;2023-10-19T13:04:40;19.70;99.90
17918;DHT22;9084;50.956;3.106;2023-10-19T13:07:07;19.50;99.90
17918;DHT22;9084;50.956;3.106;2023-10-19T13:09:33;19.50;99.90
17918;DHT22;9084;50.956;3.106;2023-10-19T13:12:01;19.40;99.90
17918;DHT22;9084;50.956;3.106;2023-10-19T13:14:27;19.40;99.90
17918;DHT22;9084;50.956;3.106;2023-10-19T13:16:53;19.30;99.90
17918;DHT22;9084;50.956;3.106;2023-10-19T13:19:22;19.30;99.90
17918;DHT22;9084;50.956;3.106;2023-10-19T13:21:53;19.20;99.90
17918;DHT22;9084;50.956;3.106;2023-10-19T13:24:23;19.10;99.90
17918;DHT22;9084;50.956;3.106;2023-10-19T13:26:53;19.10;99.90
17918;DHT22;9084;50.956;3.106;2023-10-19T13:29:19;19.20;99.90
17918;DHT22;9084;50.956;3.106;2023-10-19T13:31:45;19.20;99.90
17918;DHT22;9084;50.956;3.106;2023-10-19T13:34:17;19.30;99.90
17918;DHT22;9084;50.956;3.106;2023-10-19T13:36:43;19.40;99.90
17918;DHT22;9084;50.956;3.106;2023-10-19T13:39:13;19.30;99.90
17918;DHT22;9084;50.956;3.106;2023-10-19T13:41:42;19.30;99.90
17918;DHT22;9084;50.956;3.106;2023-10-19T13:44:07;19.20;99.90
17918;DHT22;9084;50.956;3.106;2023-10-19T13:46:36;19.10;99.90
17918;DHT22;9084;50.956;3.106;2023-10-19T13:49:02;19.00;99.90
17918;DHT22;9084;50.956;3.106;2023-10-19T13:51:31;19.00;99.90
17918;DHT22;9084;50.956;3.106;2023-10-19T13:53:56;19.00;99.90
17918;DHT22;9084;50.956;3.106;2023-10-19T13:56:25;19.10;99.90
17918;DHT22;9084;50.956;3.106;2023-10-19T13:58:53;19.20;99.90
17918;DHT22;9084;50.956;3.106;2023-10-19T14:01:20;19.30;99.90
17918;DHT22;9084;50.956;3.106;2023-10-19T14:03:53;19.30;99.90
17918;DHT22;9084;50.956;3.106;2023-10-19T14:06:22;19.30;99.90
17918;DHT22;9084;50.956;3.106;2023-10-19T14:08:51;19.20;99.90
17918;DHT22;9084;50.956;3.106;2023-10-19T14:11:20;19.20;99.90
17918;DHT22;9084;50.956;3.106;2023-10-19T14:13:47;19.10;99.90
17918;DHT22;9084;50.956;3.106;2023-10-19T14:16:15;19.10;99.90
17918;DHT22;9084;50.956;3.106;2023-10-19T14:18:41;19.10;99.90
17918;DHT22;9084;50.956;3.106;2023-10-19T14:21:14;19.10;99.90
17918;DHT22;9084;50.956;3.106;2023-10-19T14:23:42;19.00;99.90
17918;DHT22;9084;50.956;3.106;2023-10-19T14:26:09;19.00;99.90
17918;DHT22;9084;50.956;3.106;2023-10-19T14:28:37;19.00;99.90
17918;DHT22;9084;50.956;3.106;2023-10-19T14:31:04;19.10;99.90
17918;DHT22;9084;50.956;3.106;2023-10-19T14:33:30;19.10;99.90
17918;DHT22;9084;50.956;3.106;2023-10-19T14:35:56;19.10;99.90
17918;DHT22;9084;50.956;3.106;2023-10-19T14:38:24;19.10;99.90
17918;DHT22;9084;50.956;3.106;2023-10-19T14:40:52;19.00;99.90
17918;DHT22;9084;50.956;3.106;2023-10-19T14:43:19;19.00;99.90
17918;DHT22;9084;50.956;3.106;2023-10-19T14:45:44;18.90;99.90
17918;DHT22;9084;50.956;3.106;2023-10-19T14:48:12;19.00;99.90
17918;DHT22;9084;50.956;3.106;2023-10-19T14:50:40;19.00;99.90
17918;DHT22;9084;50.956;3.106;2023-10-19T14:53:08;19.00;99.90
17918;DHT22;9084;50.956;3.106;2023-10-19T14:55:34;19.00;99.90
17918;DHT22;9084;50.956;3.106;2023-10-19T14:57:59;19.00;99.90
17918;DHT22;9084;50.956;3.106;2023-10-19T15:00:26;19.00;99.90
17918;DHT22;9084;50.956;3.106;2023-10-19T15:03:09;19.00;99.90
17918;DHT22;9084;50.956;3.106;2023-10-19T15:05:35;19.00;99.90
17918;DHT22;9084;50.956;3.106;2023-10-19T15:08:02;19.10;99.90
17918;DHT22;9084;50.956;3.106;2023-10-19T15:10:30;19.10;99.90
17918;DHT22;9084;50.956;3.106;2023-10-19T15:12:59;19.10;99.90
17918;DHT22;9084;50.956;3.106;2023-10-19T15:15:26;19.10;99.90
17918;DHT22;9084;50.956;3.106;2023-10-19T15:17:52;19.10;99.90
17918;DHT22;9084;50.956;3.106;2023-10-19T15:20:20;19.10;99.90
17918;DHT22;9084;50.956;3.106;2023-10-19T15:22:46;19.10;99.90
17918;DHT22;9084;50.956;3.106;2023-10-19T15:25:15;19.10;99.90
17918;DHT22;9084;50.956;3.106;2023-10-19T15:27:45;19.10;99.90
17918;DHT22;9084;50.956;3.106;2023-10-19T15:30:13;19.10;99.90
17918;DHT22;9084;50.956;3.106;2023-10-19T15:32:41;19.20;99.90
17918;DHT22;9084;50.956;3.106;2023-10-19T15:35:09;19.10;99.90
17918;DHT22;9084;50.956;3.106;2023-10-19T15:37:35;19.10;99.90
17918;DHT22;9084;50.956;3.106;2023-10-19T15:40:02;19.00;99.90
17918;DHT22;9084;50.956;3.106;2023-10-19T15:42:29;18.90;99.90
17918;DHT22;9084;50.956;3.106;2023-10-19T15:44:56;18.80;99.90
17918;DHT22;9084;50.956;3.106;2023-10-19T15:47:22;18.70;99.90
17918;DHT22;9084;50.956;3.106;2023-10-19T15:49:55;18.60;99.90
17918;DHT22;9084;50.956;3.106;2023-10-19T15:52:25;18.50;99.90
17918;DHT22;9084;50.956;3.106;2023-10-19T15:54:52;18.60;99.90
17918;DHT22;9084;50.956;3.106;2023-10-19T15:57:18;18.50;99.90
17918;DHT22;9084;50.956;3.106;2023-10-19T15:59:44;18.50;99.90
17918;DHT22;9084;50.956;3.106;2023-10-19T16:02:11;18.50;99.90
17918;DHT22;9084;50.956;3.106;2023-10-19T16:04:41;18.40;99.90
17918;DHT22;9084;50.956;3.106;2023-10-19T16:07:13;18.40;99.90
17918;DHT22;9084;50.956;3.106;2023-10-19T16:09:42;18.30;99.90
17918;DHT22;9084;50.956;3.106;2023-10-19T16:12:10;18.20;99.90
17918;DHT22;9084;50.956;3.106;2023-10-19T16:14:37;18.20;99.90
17918;DHT22;9084;50.956;3.106;2023-10-19T16:17:04;18.10;99.90